createdAt,value
2023-04-02T00:00:11.962Z,6.10
2023-04-02T00:03:04.355Z,6.10
2023-04-02T00:05:52.138Z,6.20
2023-04-02T00:08:25.962Z,6.10
2023-04-02T00:10:59.422Z,6.10
2023-04-02T00:13:39.541Z,6.20
2023-04-02T00:16:11.071Z,6.20
2023-04-02T00:18:44.245Z,6.10
2023-04-02T00:21:19.276Z,6.10
2023-04-02T00:23:46.385Z,6.10
2023-04-02T00:26:23.052Z,6.00
2023-04-02T00:28:51.338Z,6.00
2023-04-02T00:31:20.342Z,6.00
2023-04-02T00:33:49.478Z,5.90
2023-04-02T00:36:20.028Z,5.80
2023-04-02T00:38:48.696Z,5.80
2023-04-02T00:41:22.350Z,5.80
2023-04-02T00:43:50.863Z,5.80
2023-04-02T00:46:25.257Z,5.80
2023-04-02T00:49:09.126Z,5.70
2023-04-02T00:51:41.763Z,5.80
2023-04-02T00:54:15.932Z,5.70
2023-04-02T00:56:46.208Z,5.70
2023-04-02T00:59:27.846Z,5.70
2023-04-02T01:02:01.825Z,5.70
2023-04-02T01:04:36.523Z,5.70
2023-04-02T01:07:08.703Z,5.60
2023-04-02T01:09:53.146Z,5.60
2023-04-02T01:12:32.085Z,5.50
2023-04-02T01:15:11.067Z,5.50
2023-04-02T01:17:54.633Z,5.40
2023-04-02T01:20:43.714Z,5.40
2023-04-02T01:23:42.138Z,5.40
2023-04-02T01:26:44.568Z,5.40
2023-04-02T01:29:28.950Z,5.40
2023-04-02T01:32:00.346Z,5.50
2023-04-02T01:34:28.996Z,5.50
2023-04-02T01:37:04.900Z,5.40
2023-04-02T01:39:45.461Z,5.30
2023-04-02T01:42:16.572Z,5.30
2023-04-02T01:44:49.022Z,5.20
2023-04-02T01:47:19.418Z,5.20
2023-04-02T01:49:47.163Z,5.20
2023-04-02T01:52:17.942Z,5.10
2023-04-02T01:54:47.226Z,5.10
2023-04-02T01:57:14.252Z,5.00
2023-04-02T01:59:41.204Z,5.00
2023-04-02T02:02:12.821Z,5.00
2023-04-02T02:04:40.353Z,5.00
2023-04-02T02:07:14.680Z,5.00
2023-04-02T02:09:42.748Z,5.00
2023-04-02T02:12:13.733Z,5.00
2023-04-02T02:14:46.907Z,5.10
2023-04-02T02:17:19.347Z,5.20
2023-04-02T02:19:50.547Z,5.30
2023-04-02T02:22:31.394Z,5.40
2023-04-02T02:25:00.789Z,5.40
2023-04-02T02:27:27.468Z,5.40
2023-04-02T02:30:41.792Z,5.50
2023-04-02T02:33:26.392Z,5.50
2023-04-02T02:36:05.494Z,5.60
2023-04-02T02:38:35.235Z,5.60
2023-04-02T02:41:08.667Z,5.70
2023-04-02T02:43:41.969Z,5.80
2023-04-02T02:46:15.292Z,5.80
2023-04-02T02:48:44.118Z,5.80
2023-04-02T02:51:20.705Z,5.90
2023-04-02T02:53:52.821Z,5.90
2023-04-02T02:56:23.053Z,6.00
2023-04-02T02:58:52.930Z,6.00
2023-04-02T03:01:19.845Z,5.90
2023-04-02T03:03:47.766Z,5.90
2023-04-02T03:06:17.161Z,5.90
2023-04-02T03:08:53.361Z,5.90
2023-04-02T03:11:47.441Z,5.90
2023-04-02T03:14:37.448Z,5.90
2023-04-02T03:17:32.939Z,5.90
2023-04-02T03:20:16.021Z,5.90
2023-04-02T03:22:58.174Z,5.90
2023-04-02T03:25:37.307Z,5.90
2023-04-02T03:28:07.909Z,5.90
2023-04-02T03:30:49.891Z,5.90
2023-04-02T03:33:31.325Z,5.90
2023-04-02T03:36:28.428Z,5.90
2023-04-02T03:39:37.341Z,5.90
2023-04-02T03:42:08.046Z,5.80
2023-04-02T03:44:53.254Z,5.80
2023-04-02T03:47:33.943Z,5.80
2023-04-02T03:50:28.352Z,5.70
2023-04-02T03:52:56.774Z,5.70
2023-04-02T03:55:30.605Z,5.70
2023-04-02T03:58:15.110Z,5.60
2023-04-02T04:01:03.319Z,5.60
2023-04-02T04:03:38.833Z,5.60
2023-04-02T04:06:15.452Z,5.60
2023-04-02T04:08:50.709Z,5.60
2023-04-02T04:11:22.721Z,5.60
2023-04-02T04:14:02.894Z,5.60
2023-04-02T04:16:41.728Z,5.60
2023-04-02T04:19:32.600Z,5.60
2023-04-02T04:22:19.871Z,5.60
2023-04-02T04:24:47.708Z,5.60
2023-04-02T04:27:17.221Z,5.60
2023-04-02T04:30:05.850Z,5.60
2023-04-02T04:32:50.162Z,5.60
2023-04-02T04:35:28.698Z,5.60
2023-04-02T04:38:07.771Z,5.60
2023-04-02T04:40:37.731Z,5.60
2023-04-02T04:43:10.769Z,5.60
2023-04-02T04:46:04.891Z,5.60
2023-04-02T04:49:00.518Z,5.60
2023-04-02T04:51:56.203Z,5.60
2023-04-02T04:54:26.588Z,5.60
2023-04-02T04:57:00.352Z,5.60
2023-04-02T04:59:49.753Z,5.60
2023-04-02T05:02:18.566Z,5.60
2023-04-02T05:04:51.528Z,5.60
2023-04-02T05:07:36.395Z,5.60
2023-04-02T05:10:18.560Z,5.60
2023-04-02T05:13:21.092Z,5.70
2023-04-02T05:16:10.960Z,5.70
2023-04-02T05:18:47.343Z,5.70
2023-04-02T05:21:27.041Z,5.70
2023-04-02T05:24:23.840Z,5.70
2023-04-02T05:26:51.931Z,5.70
2023-04-02T05:29:26.774Z,5.70
2023-04-02T05:32:13.052Z,5.80
2023-04-02T05:34:43.166Z,5.80
2023-04-02T05:37:18.310Z,5.80
2023-04-02T05:39:46.283Z,5.90
2023-04-02T05:42:22.426Z,5.90
2023-04-02T05:45:10.580Z,6.00
2023-04-02T05:47:43.188Z,6.00
2023-04-02T05:50:15.699Z,6.00
2023-04-02T05:52:57.843Z,6.10
2023-04-02T05:55:38.141Z,6.10
2023-04-02T05:58:34.523Z,6.10
2023-04-02T06:01:12.832Z,6.20
2023-04-02T06:03:46.284Z,6.20
2023-04-02T06:06:45.055Z,6.20
2023-04-02T06:09:57.478Z,6.30
2023-04-02T06:12:36.374Z,6.40
2023-04-02T06:15:03.428Z,6.40
2023-04-02T06:17:33.557Z,6.40
2023-04-02T06:20:04.276Z,6.50
2023-04-02T06:22:38.484Z,6.50
2023-04-02T06:25:29.254Z,6.50
2023-04-02T06:27:59.732Z,6.50
2023-04-02T06:30:32.580Z,6.50
2023-04-02T06:32:59.436Z,6.50
2023-04-02T06:35:26.716Z,6.50
2023-04-02T06:37:57.287Z,6.60
2023-04-02T06:40:48.838Z,6.60
2023-04-02T06:43:40.955Z,6.70
2023-04-02T06:46:31.277Z,6.70
2023-04-02T06:49:15.172Z,6.70
2023-04-02T06:51:43.994Z,6.70
2023-04-02T06:54:16.162Z,6.80
2023-04-02T06:56:46.915Z,6.90
2023-04-02T06:59:15.792Z,7.00
2023-04-02T07:01:54.638Z,7.00
2023-04-02T07:04:22.273Z,7.10
2023-04-02T07:06:49.140Z,7.10
2023-04-02T07:09:16.675Z,7.00
2023-04-02T07:11:43.602Z,7.00
2023-04-02T07:14:13.489Z,7.00
2023-04-02T07:16:42.464Z,7.00
2023-04-02T07:19:18.285Z,7.00
2023-04-02T07:21:45.508Z,7.00
2023-04-02T07:24:12.233Z,7.10
2023-04-02T07:26:39.118Z,7.00
2023-04-02T07:29:13.762Z,7.00
2023-04-02T07:31:43.320Z,7.00
2023-04-02T07:34:10.927Z,7.10
2023-04-02T07:36:37.726Z,7.10
2023-04-02T07:39:04.902Z,7.20
2023-04-02T07:41:31.622Z,7.20
2023-04-02T07:43:58.461Z,7.10
2023-04-02T07:46:25.987Z,7.30
2023-04-02T07:48:52.899Z,7.30
2023-04-02T07:51:22.692Z,7.40
2023-04-02T07:53:50.318Z,7.50
2023-04-02T07:56:19.613Z,7.60
2023-04-02T07:58:46.627Z,7.70
2023-04-02T08:01:26.461Z,7.80
2023-04-02T08:03:55.047Z,7.80
2023-04-02T08:06:22.786Z,7.90
2023-04-02T08:08:49.947Z,8.00
2023-04-02T08:11:16.870Z,8.00
2023-04-02T08:13:43.616Z,8.10
2023-04-02T08:16:11.160Z,8.30
2023-04-02T08:18:38.681Z,8.30
2023-04-02T08:21:10.522Z,8.10
2023-04-02T08:23:38.134Z,8.10
2023-04-02T08:26:06.289Z,8.10
2023-04-02T08:28:33.142Z,8.10
2023-04-02T08:31:00.220Z,8.10
2023-04-02T08:33:27.188Z,8.10
2023-04-02T08:35:54.095Z,8.10
2023-04-02T08:38:23.029Z,8.20
2023-04-02T08:40:52.482Z,8.30
2023-04-02T08:43:53.157Z,8.40
2023-04-02T08:46:51.998Z,8.50
2023-04-02T08:49:29.088Z,8.80
2023-04-02T08:51:55.952Z,8.90
2023-04-02T08:54:27.974Z,8.80
2023-04-02T08:57:18.404Z,8.70
2023-04-02T08:59:45.840Z,8.70
2023-04-02T09:02:46.896Z,8.90
2023-04-02T09:05:23.004Z,9.00
2023-04-02T09:07:52.456Z,9.00
2023-04-02T09:10:19.763Z,9.10
2023-04-02T09:12:51.411Z,9.10
2023-04-02T09:15:29.425Z,9.20
2023-04-02T09:18:06.855Z,9.20
2023-04-02T09:20:33.668Z,9.40
2023-04-02T09:23:01.794Z,9.40
2023-04-02T09:25:32.026Z,9.40
2023-04-02T09:28:02.640Z,9.50
2023-04-02T09:30:32.193Z,9.30
2023-04-02T09:33:09.076Z,9.40
2023-04-02T09:35:57.914Z,9.50
2023-04-02T09:38:32.930Z,9.50
2023-04-02T09:41:02.715Z,9.60
2023-04-02T09:43:35.577Z,9.70
2023-04-02T09:46:05.734Z,9.80
2023-04-02T09:48:34.434Z,10.00
2023-04-02T09:51:05.880Z,10.00
2023-04-02T09:53:48.995Z,10.10
2023-04-02T09:56:17.414Z,10.10
2023-04-02T09:58:45.580Z,10.10
2023-04-02T10:01:53.328Z,9.90
2023-04-02T10:04:47.954Z,10.00
2023-04-02T10:07:36.783Z,10.00
2023-04-02T10:10:31.437Z,10.30
2023-04-02T10:13:24.448Z,10.00
2023-04-02T10:16:08.984Z,10.00
2023-04-02T10:18:56.098Z,10.00
2023-04-02T10:21:34.133Z,10.20
2023-04-02T10:24:02.986Z,10.40
2023-04-02T10:26:44.841Z,10.40
2023-04-02T10:29:42.143Z,10.30
2023-04-02T10:32:18.550Z,10.60
2023-04-02T10:35:08.904Z,10.60
2023-04-02T10:38:09.099Z,10.80
2023-04-02T10:40:41.797Z,10.80
2023-04-02T10:43:29.462Z,11.20
2023-04-02T10:46:29.780Z,11.10
2023-04-02T10:49:35.946Z,11.10
2023-04-02T10:52:13.588Z,11.20
2023-04-02T10:54:47.846Z,11.30
2023-04-02T10:57:23.556Z,11.10
2023-04-02T11:00:00.516Z,11.10
2023-04-02T11:02:56.737Z,11.20
2023-04-02T11:05:44.240Z,11.20
2023-04-02T11:08:29.238Z,10.90
2023-04-02T11:11:04.353Z,11.00
2023-04-02T11:13:45.563Z,11.10
2023-04-02T11:16:16.183Z,10.90
2023-04-02T11:18:43.187Z,11.10
2023-04-02T11:21:57.343Z,11.00
2023-04-02T11:24:32.976Z,10.80
2023-04-02T11:27:46.274Z,10.60
2023-04-02T11:30:15.954Z,10.50
2023-04-02T11:32:47.254Z,10.40
2023-04-02T11:35:32.495Z,10.40
2023-04-02T11:38:23.576Z,10.50
2023-04-02T11:40:51.575Z,10.40
2023-04-02T11:43:33.688Z,10.40
2023-04-02T11:46:02.142Z,10.20
2023-04-02T11:48:36.236Z,10.20
2023-04-02T11:51:23.400Z,10.20
2023-04-02T11:53:52.933Z,10.50
2023-04-02T11:56:35.349Z,10.50
2023-04-02T11:59:20.582Z,10.70
2023-04-02T12:02:05.765Z,11.00
2023-04-02T12:04:56.555Z,11.00
2023-04-02T12:08:05.110Z,11.00
2023-04-02T12:10:56.079Z,10.90
2023-04-02T12:13:41.286Z,10.80
2023-04-02T12:16:12.951Z,10.80
2023-04-02T12:18:48.781Z,10.80
2023-04-02T12:21:20.836Z,10.90
2023-04-02T12:23:48.727Z,10.90
2023-04-02T12:26:27.530Z,11.00
2023-04-02T12:28:54.280Z,11.00
2023-04-02T12:31:25.178Z,10.80
2023-04-02T12:33:52.918Z,10.60
2023-04-02T12:36:22.495Z,10.50
2023-04-02T12:38:58.725Z,10.30
2023-04-02T12:41:30.154Z,10.10
2023-04-02T12:44:15.480Z,9.90
2023-04-02T12:46:43.484Z,9.80
2023-04-02T12:49:39.701Z,9.80
2023-04-02T12:52:18.564Z,9.70
2023-04-02T12:54:58.323Z,9.60
2023-04-02T12:57:31.001Z,9.50
2023-04-02T13:00:18.951Z,9.50
2023-04-02T13:02:51.353Z,9.60
2023-04-02T13:05:36.436Z,9.70
2023-04-02T13:08:05.673Z,9.90
2023-04-02T13:10:32.803Z,9.90
2023-04-02T13:13:02.317Z,10.00
2023-04-02T13:15:32.068Z,10.10
2023-04-02T13:18:17.370Z,10.20
2023-04-02T13:21:23.592Z,10.30
2023-04-02T13:23:50.379Z,10.50
2023-04-02T13:26:24.139Z,10.50
2023-04-02T13:29:25.943Z,10.50
2023-04-02T13:31:56.153Z,10.60
2023-04-02T13:34:23.105Z,10.40
2023-04-02T13:36:49.939Z,10.60
2023-04-02T13:39:16.908Z,10.60
2023-04-02T13:41:45.894Z,10.70
2023-04-02T13:44:30.694Z,10.80
2023-04-02T13:46:58.197Z,11.10
2023-04-02T13:49:25.603Z,11.10
2023-04-02T13:52:00.864Z,10.80
2023-04-02T13:54:40.971Z,10.50
2023-04-02T13:57:07.808Z,10.10
2023-04-02T13:59:34.684Z,9.80
2023-04-02T14:02:10.410Z,9.70
2023-04-02T14:04:44.805Z,9.50
2023-04-02T14:07:31.933Z,9.40
2023-04-02T14:10:15.699Z,9.50
2023-04-02T14:13:10.047Z,9.20
2023-04-02T14:15:48.717Z,9.40
2023-04-02T14:18:52.769Z,9.40
2023-04-02T14:21:26.563Z,9.70
2023-04-02T14:24:22.105Z,9.60
2023-04-02T14:27:06.424Z,9.60
2023-04-02T14:29:48.412Z,9.60
2023-04-02T14:32:19.311Z,9.40
2023-04-02T14:35:07.618Z,9.30
2023-04-02T14:37:57.618Z,9.40
2023-04-02T14:40:24.257Z,9.50
2023-04-02T14:43:24.265Z,9.00
2023-04-02T14:46:00.972Z,8.90
2023-04-02T14:48:52.099Z,9.00
2023-04-02T14:51:40.868Z,9.20
2023-04-02T14:54:15.195Z,9.10
2023-04-02T14:56:52.968Z,9.10
2023-04-02T14:59:25.431Z,9.00
2023-04-02T15:01:58.789Z,8.90
2023-04-02T15:04:42.531Z,8.80
2023-04-02T15:07:23.099Z,8.80
2023-04-02T15:09:57.852Z,8.60
2023-04-02T15:12:31.003Z,8.30
2023-04-02T15:15:22.201Z,8.20
2023-04-02T15:17:53.851Z,8.20
2023-04-02T15:20:20.803Z,7.90
2023-04-02T15:22:53.600Z,7.80
2023-04-02T15:25:29.752Z,7.80
2023-04-02T15:28:13.996Z,7.80
2023-04-02T15:30:44.176Z,7.70
2023-04-02T15:33:34.580Z,7.70
2023-04-02T15:36:15.627Z,7.70
2023-04-02T15:38:50.617Z,7.70
2023-04-02T15:41:26.510Z,7.80
2023-04-02T15:44:08.194Z,7.70
2023-04-02T15:46:52.999Z,7.80
2023-04-02T15:49:52.563Z,7.50
2023-04-02T15:52:25.064Z,7.30
2023-04-02T15:55:27.962Z,7.20
2023-04-02T15:58:10.148Z,7.10
2023-04-02T16:00:49.649Z,7.00
2023-04-02T16:03:40.773Z,7.00
2023-04-02T16:06:17.168Z,6.90
2023-04-02T16:09:26.084Z,7.00
2023-04-02T16:12:01.435Z,6.90
2023-04-02T16:14:31.204Z,6.90
2023-04-02T16:17:17.538Z,6.80
2023-04-02T16:19:52.974Z,6.70
2023-04-02T16:22:25.922Z,6.70
2023-04-02T16:25:13.436Z,6.60
2023-04-02T16:27:56.606Z,6.50
2023-04-02T16:30:53.169Z,6.60
2023-04-02T16:33:41.246Z,6.40
2023-04-02T16:36:26.137Z,6.40
2023-04-02T16:39:08.009Z,6.30
2023-04-02T16:42:01.100Z,6.20
2023-04-02T16:44:35.812Z,6.10
2023-04-02T16:47:21.485Z,6.10
2023-04-02T16:50:08.456Z,6.00
2023-04-02T16:52:41.165Z,5.90
2023-04-02T16:55:29.587Z,5.90
2023-04-02T16:58:17.404Z,5.90
2023-04-02T17:00:59.988Z,5.90
2023-04-02T17:04:04.341Z,5.90
2023-04-02T17:06:43.075Z,5.90
2023-04-02T17:09:26.886Z,6.00
2023-04-02T17:12:12.789Z,6.00
2023-04-02T17:14:49.684Z,6.00
2023-04-02T17:17:17.321Z,6.00
2023-04-02T17:19:44.591Z,5.90
2023-04-02T17:22:17.951Z,5.70
2023-04-02T17:24:49.610Z,5.70
2023-04-02T17:27:22.198Z,5.70
2023-04-02T17:29:52.939Z,5.50
2023-04-02T17:32:29.882Z,5.50
2023-04-02T17:34:57.589Z,5.50
2023-04-02T17:37:38.977Z,5.50
2023-04-02T17:40:18.441Z,5.30
2023-04-02T17:43:08.760Z,5.30
2023-04-02T17:45:44.758Z,5.30
2023-04-02T17:48:26.777Z,5.30
2023-04-02T17:51:30.575Z,5.40
2023-04-02T17:54:15.966Z,5.30
2023-04-02T17:57:27.146Z,5.10
2023-04-02T18:00:19.307Z,5.00
2023-04-02T18:02:51.875Z,4.90
2023-04-02T18:05:31.541Z,4.90
2023-04-02T18:08:04.896Z,4.70
2023-04-02T18:10:48.122Z,4.70
2023-04-02T18:13:14.843Z,4.60
2023-04-02T18:15:56.762Z,4.50
2023-04-02T18:19:12.738Z,4.50
2023-04-02T18:22:03.472Z,4.30
2023-04-02T18:24:51.160Z,4.30
2023-04-02T18:28:01.917Z,4.30
2023-04-02T18:30:40.839Z,4.20
2023-04-02T18:33:22.444Z,4.10
2023-04-02T18:36:16.415Z,4.10
2023-04-02T18:38:51.736Z,4.10
2023-04-02T18:41:54.475Z,4.10
2023-04-02T18:44:28.877Z,4.00
2023-04-02T18:47:09.393Z,3.90
2023-04-02T18:49:42.857Z,3.90
2023-04-02T18:52:16.499Z,4.00
2023-04-02T18:54:51.244Z,4.00
2023-04-02T18:57:33.961Z,4.00
2023-04-02T19:00:06.232Z,3.90
2023-04-02T19:02:56.421Z,3.80
2023-04-02T19:05:44.450Z,3.80
2023-04-02T19:08:19.090Z,3.70
2023-04-02T19:10:54.952Z,3.60
2023-04-02T19:13:21.777Z,3.50
2023-04-02T19:15:54.690Z,3.60
2023-04-02T19:18:45.547Z,3.60
2023-04-02T19:21:43.441Z,3.50
2023-04-02T19:24:31.555Z,3.50
2023-04-02T19:27:28.285Z,3.60
2023-04-02T19:30:18.779Z,3.60
2023-04-02T19:33:03.855Z,3.50
2023-04-02T19:35:57.294Z,3.40
2023-04-02T19:38:52.907Z,3.40
2023-04-02T19:41:51.095Z,3.40
2023-04-02T19:44:18.528Z,3.40
2023-04-02T19:46:46.523Z,3.30
2023-04-02T19:49:32.762Z,3.20
2023-04-02T19:51:59.589Z,3.20
2023-04-02T19:54:26.410Z,3.20
2023-04-02T19:56:53.237Z,3.00
2023-04-02T19:59:20.072Z,3.00
2023-04-02T20:01:47.474Z,3.00
2023-04-02T20:04:14.557Z,3.00
2023-04-02T20:06:41.526Z,2.90
2023-04-02T20:09:08.649Z,2.90
2023-04-02T20:11:37.376Z,2.90
2023-04-02T20:14:05.482Z,3.00
2023-04-02T20:16:33.823Z,3.00
2023-04-02T20:19:00.611Z,2.90
2023-04-02T20:21:27.645Z,2.90
2023-04-02T20:23:55.394Z,3.00
2023-04-02T20:26:22.619Z,2.90
2023-04-02T20:28:49.619Z,2.80
2023-04-02T20:31:18.437Z,2.90
2023-04-02T20:33:45.518Z,2.80
2023-04-02T20:36:14.874Z,2.80
2023-04-02T20:38:41.640Z,2.80
2023-04-02T20:41:09.531Z,2.70
2023-04-02T20:43:37.563Z,2.70
2023-04-02T20:46:08.353Z,2.70
2023-04-02T20:48:37.590Z,2.80
2023-04-02T20:51:06.046Z,2.70
2023-04-02T20:53:34.921Z,2.60
2023-04-02T20:56:07.016Z,2.50
2023-04-02T20:58:35.812Z,2.60
2023-04-02T21:01:06.699Z,2.60
2023-04-02T21:03:33.436Z,2.50
2023-04-02T21:06:00.360Z,2.50
2023-04-02T21:08:27.252Z,2.50
2023-04-02T21:11:00.744Z,2.50
2023-04-02T21:13:30.045Z,2.50
2023-04-02T21:15:56.870Z,2.50
2023-04-02T21:18:23.764Z,2.40
2023-04-02T21:21:01.658Z,2.40
2023-04-02T21:23:29.099Z,2.40
2023-04-02T21:25:57.758Z,2.40
2023-04-02T21:28:24.961Z,2.30
2023-04-02T21:30:51.844Z,2.30
2023-04-02T21:33:18.680Z,2.30
2023-04-02T21:35:45.703Z,2.20
2023-04-02T21:38:12.577Z,2.30
2023-04-02T21:40:39.348Z,2.30
2023-04-02T21:43:06.107Z,2.30
2023-04-02T21:45:32.837Z,2.30
2023-04-02T21:47:59.609Z,2.20
2023-04-02T21:50:26.384Z,2.30
2023-04-02T21:52:53.256Z,2.20
2023-04-02T21:55:20.006Z,2.20
2023-04-02T21:57:46.780Z,2.20
2023-04-02T22:00:15.577Z,2.20
2023-04-02T22:02:42.398Z,2.20
2023-04-02T22:05:09.424Z,2.10
2023-04-02T22:07:36.190Z,2.20
2023-04-02T22:10:03.209Z,2.20
2023-04-02T22:12:29.919Z,2.10
2023-04-02T22:14:56.702Z,2.10
2023-04-02T22:17:23.609Z,2.10
2023-04-02T22:19:50.381Z,2.10
2023-04-02T22:22:17.094Z,2.10
2023-04-02T22:24:43.785Z,2.10
2023-04-02T22:27:10.507Z,2.00
2023-04-02T22:29:37.260Z,2.10
2023-04-02T22:32:03.990Z,2.10
2023-04-02T22:34:31.021Z,2.10
2023-04-02T22:36:57.753Z,2.10
2023-04-02T22:39:24.411Z,2.10
2023-04-02T22:41:51.167Z,2.10
2023-04-02T22:44:17.920Z,2.10
2023-04-02T22:46:44.778Z,2.10
2023-04-02T22:49:11.822Z,2.10
2023-04-02T22:51:38.551Z,2.10
2023-04-02T22:54:05.716Z,2.10
2023-04-02T22:56:33.115Z,2.10
2023-04-02T22:58:59.991Z,2.10
2023-04-02T23:01:33.040Z,2.10
2023-04-02T23:04:00.584Z,2.10
2023-04-02T23:06:28.269Z,2.10
2023-04-02T23:08:55.390Z,2.10
2023-04-02T23:11:24.948Z,2.10
2023-04-02T23:13:53.706Z,2.10
2023-04-02T23:16:21.383Z,2.10
2023-04-02T23:18:48.963Z,2.10
2023-04-02T23:21:17.301Z,2.00
2023-04-02T23:23:44.119Z,2.00
2023-04-02T23:26:21.242Z,2.00
2023-04-02T23:28:48.944Z,1.90
2023-04-02T23:31:18.306Z,1.90
2023-04-02T23:33:45.094Z,1.80
2023-04-02T23:36:20.648Z,1.90
2023-04-02T23:38:47.499Z,1.90
2023-04-02T23:41:15.814Z,1.80
2023-04-02T23:43:43.526Z,1.80
2023-04-02T23:46:10.406Z,1.90
2023-04-02T23:48:37.190Z,1.80
2023-04-02T23:51:04.283Z,1.80
2023-04-02T23:53:31.048Z,1.80
2023-04-02T23:55:57.757Z,1.80
2023-04-02T23:58:24.625Z,1.80
